sensor_id;sensor_type;location;lat;lon;timestamp;P1;durP1;ratioP1;P2;durP2;ratioP2
70433;SDS011;57876;47.792;12.960;2023-07-28T00:00:32;4.80;;;1.20;;
70433;SDS011;57876;47.792;12.960;2023-07-28T00:02:56;4.83;;;1.30;;
70433;SDS011;57876;47.792;12.960;2023-07-28T00:05:20;4.50;;;1.20;;
70433;SDS011;57876;47.792;12.960;2023-07-28T00:07:45;5.27;;;1.43;;
70433;SDS011;57876;47.792;12.960;2023-07-28T00:10:10;4.35;;;1.13;;
70433;SDS011;57876;47.792;12.960;2023-07-28T00:12:34;4.40;;;1.20;;
70433;SDS011;57876;47.792;12.960;2023-07-28T00:14:59;4.50;;;1.20;;
70433;SDS011;57876;47.792;12.960;2023-07-28T00:17:24;4.53;;;1.40;;
70433;SDS011;57876;47.792;12.960;2023-07-28T00:19:48;4.73;;;1.30;;
70433;SDS011;57876;47.792;12.960;2023-07-28T00:22:12;4.72;;;1.20;;
70433;SDS011;57876;47.792;12.960;2023-07-28T00:24:37;4.07;;;1.10;;
70433;SDS011;57876;47.792;12.960;2023-07-28T00:27:01;4.43;;;1.20;;
70433;SDS011;57876;47.792;12.960;2023-07-28T00:29:26;4.70;;;1.20;;
70433;SDS011;57876;47.792;12.960;2023-07-28T00:31:50;4.60;;;1.33;;
70433;SDS011;57876;47.792;12.960;2023-07-28T00:34:14;4.87;;;1.37;;
70433;SDS011;57876;47.792;12.960;2023-07-28T00:36:39;4.67;;;1.30;;
70433;SDS011;57876;47.792;12.960;2023-07-28T00:39:05;4.35;;;1.30;;
70433;SDS011;57876;47.792;12.960;2023-07-28T00:41:29;5.10;;;1.50;;
70433;SDS011;57876;47.792;12.960;2023-07-28T00:43:54;4.35;;;1.45;;
70433;SDS011;57876;47.792;12.960;2023-07-28T00:46:18;4.67;;;1.77;;
70433;SDS011;57876;47.792;12.960;2023-07-28T00:48:43;4.50;;;1.30;;
70433;SDS011;57876;47.792;12.960;2023-07-28T00:51:09;4.93;;;1.10;;
70433;SDS011;57876;47.792;12.960;2023-07-28T00:53:33;4.60;;;1.10;;
70433;SDS011;57876;47.792;12.960;2023-07-28T00:55:58;4.63;;;1.30;;
70433;SDS011;57876;47.792;12.960;2023-07-28T00:58:23;4.70;;;1.40;;
70433;SDS011;57876;47.792;12.960;2023-07-28T01:00:47;4.82;;;1.35;;
70433;SDS011;57876;47.792;12.960;2023-07-28T01:03:12;4.77;;;1.20;;
70433;SDS011;57876;47.792;12.960;2023-07-28T01:05:55;4.60;;;1.35;;
70433;SDS011;57876;47.792;12.960;2023-07-28T01:08:30;4.85;;;1.40;;
70433;SDS011;57876;47.792;12.960;2023-07-28T01:10:59;4.50;;;1.30;;
70433;SDS011;57876;47.792;12.960;2023-07-28T01:13:23;4.27;;;1.10;;
70433;SDS011;57876;47.792;12.960;2023-07-28T01:15:48;4.80;;;1.33;;
70433;SDS011;57876;47.792;12.960;2023-07-28T01:18:12;5.07;;;1.40;;
70433;SDS011;57876;47.792;12.960;2023-07-28T01:20:37;4.97;;;1.23;;
70433;SDS011;57876;47.792;12.960;2023-07-28T01:28:21;4.40;;;1.20;;
70433;SDS011;57876;47.792;12.960;2023-07-28T01:30:46;4.43;;;1.00;;
70433;SDS011;57876;47.792;12.960;2023-07-28T01:33:11;4.90;;;1.30;;
70433;SDS011;57876;47.792;12.960;2023-07-28T01:35:36;4.60;;;1.30;;
70433;SDS011;57876;47.792;12.960;2023-07-28T01:38:04;4.75;;;1.38;;
70433;SDS011;57876;47.792;12.960;2023-07-28T01:40:28;4.50;;;1.20;;
70433;SDS011;57876;47.792;12.960;2023-07-28T01:42:53;4.65;;;1.23;;
70433;SDS011;57876;47.792;12.960;2023-07-28T01:45:17;4.40;;;1.13;;
70433;SDS011;57876;47.792;12.960;2023-07-28T01:47:42;4.57;;;1.20;;
70433;SDS011;57876;47.792;12.960;2023-07-28T01:50:06;4.83;;;1.40;;
70433;SDS011;57876;47.792;12.960;2023-07-28T01:52:31;4.68;;;1.27;;
70433;SDS011;57876;47.792;12.960;2023-07-28T01:54:55;4.50;;;1.30;;
70433;SDS011;57876;47.792;12.960;2023-07-28T01:57:19;4.70;;;1.30;;
70433;SDS011;57876;47.792;12.960;2023-07-28T01:59:44;4.70;;;1.40;;
70433;SDS011;57876;47.792;12.960;2023-07-28T02:02:08;4.60;;;1.20;;
70433;SDS011;57876;47.792;12.960;2023-07-28T02:04:33;4.77;;;1.20;;
70433;SDS011;57876;47.792;12.960;2023-07-28T02:06:57;4.43;;;1.10;;
70433;SDS011;57876;47.792;12.960;2023-07-28T02:09:22;4.90;;;1.30;;
70433;SDS011;57876;47.792;12.960;2023-07-28T02:11:46;4.40;;;1.40;;
70433;SDS011;57876;47.792;12.960;2023-07-28T02:14:11;4.73;;;1.30;;
70433;SDS011;57876;47.792;12.960;2023-07-28T02:16:35;4.37;;;1.30;;
70433;SDS011;57876;47.792;12.960;2023-07-28T02:18:59;4.40;;;1.20;;
70433;SDS011;57876;47.792;12.960;2023-07-28T02:21:24;4.30;;;1.20;;
70433;SDS011;57876;47.792;12.960;2023-07-28T02:23:48;4.40;;;1.30;;
70433;SDS011;57876;47.792;12.960;2023-07-28T02:26:13;4.33;;;1.30;;
70433;SDS011;57876;47.792;12.960;2023-07-28T02:28:37;4.50;;;1.40;;
70433;SDS011;57876;47.792;12.960;2023-07-28T02:31:02;4.60;;;1.47;;
70433;SDS011;57876;47.792;12.960;2023-07-28T02:33:26;5.13;;;1.50;;
70433;SDS011;57876;47.792;12.960;2023-07-28T02:35:53;4.80;;;1.20;;
70433;SDS011;57876;47.792;12.960;2023-07-28T02:38:17;4.20;;;1.10;;
70433;SDS011;57876;47.792;12.960;2023-07-28T02:40:42;4.20;;;1.13;;
70433;SDS011;57876;47.792;12.960;2023-07-28T02:43:07;4.65;;;1.33;;
70433;SDS011;57876;47.792;12.960;2023-07-28T02:45:31;4.57;;;1.30;;
70433;SDS011;57876;47.792;12.960;2023-07-28T02:47:55;4.60;;;1.30;;
70433;SDS011;57876;47.792;12.960;2023-07-28T02:50:20;4.60;;;1.33;;
70433;SDS011;57876;47.792;12.960;2023-07-28T02:52:45;4.43;;;1.30;;
70433;SDS011;57876;47.792;12.960;2023-07-28T02:55:10;4.78;;;1.25;;
70433;SDS011;57876;47.792;12.960;2023-07-28T02:57:34;4.97;;;1.50;;
70433;SDS011;57876;47.792;12.960;2023-07-28T02:59:58;4.63;;;1.20;;
70433;SDS011;57876;47.792;12.960;2023-07-28T03:02:23;4.30;;;1.27;;
70433;SDS011;57876;47.792;12.960;2023-07-28T03:04:47;4.60;;;1.20;;
70433;SDS011;57876;47.792;12.960;2023-07-28T03:07:12;4.70;;;1.20;;
70433;SDS011;57876;47.792;12.960;2023-07-28T03:09:36;4.30;;;1.00;;
70433;SDS011;57876;47.792;12.960;2023-07-28T03:12:01;4.45;;;1.30;;
70433;SDS011;57876;47.792;12.960;2023-07-28T03:14:26;4.40;;;1.30;;
70433;SDS011;57876;47.792;12.960;2023-07-28T03:16:52;4.65;;;1.30;;
70433;SDS011;57876;47.792;12.960;2023-07-28T03:19:16;4.40;;;1.20;;
70433;SDS011;57876;47.792;12.960;2023-07-28T03:21:41;4.38;;;1.17;;
70433;SDS011;57876;47.792;12.960;2023-07-28T03:24:06;4.20;;;1.13;;
70433;SDS011;57876;47.792;12.960;2023-07-28T03:26:30;4.80;;;1.30;;
70433;SDS011;57876;47.792;12.960;2023-07-28T03:28:54;4.87;;;1.50;;
70433;SDS011;57876;47.792;12.960;2023-07-28T03:31:19;4.50;;;1.33;;
70433;SDS011;57876;47.792;12.960;2023-07-28T03:33:43;5.90;;;1.53;;
70433;SDS011;57876;47.792;12.960;2023-07-28T03:36:07;4.90;;;1.40;;
70433;SDS011;57876;47.792;12.960;2023-07-28T03:38:32;4.73;;;1.27;;
70433;SDS011;57876;47.792;12.960;2023-07-28T03:40:56;4.88;;;1.40;;
70433;SDS011;57876;47.792;12.960;2023-07-28T03:43:21;4.47;;;1.10;;
70433;SDS011;57876;47.792;12.960;2023-07-28T03:45:45;4.43;;;1.10;;
70433;SDS011;57876;47.792;12.960;2023-07-28T03:48:10;4.53;;;1.30;;
70433;SDS011;57876;47.792;12.960;2023-07-28T03:50:34;4.50;;;1.33;;
70433;SDS011;57876;47.792;12.960;2023-07-28T03:52:59;4.50;;;1.13;;
70433;SDS011;57876;47.792;12.960;2023-07-28T03:55:23;4.30;;;1.00;;
70433;SDS011;57876;47.792;12.960;2023-07-28T03:57:48;4.28;;;1.10;;
70433;SDS011;57876;47.792;12.960;2023-07-28T04:00:12;4.60;;;1.30;;
70433;SDS011;57876;47.792;12.960;2023-07-28T04:02:38;4.60;;;1.23;;
70433;SDS011;57876;47.792;12.960;2023-07-28T04:05:02;4.27;;;1.10;;
70433;SDS011;57876;47.792;12.960;2023-07-28T04:07:26;4.60;;;1.20;;
70433;SDS011;57876;47.792;12.960;2023-07-28T04:09:51;4.40;;;1.20;;
70433;SDS011;57876;47.792;12.960;2023-07-28T04:12:15;4.47;;;1.50;;
70433;SDS011;57876;47.792;12.960;2023-07-28T04:14:39;4.00;;;1.10;;
70433;SDS011;57876;47.792;12.960;2023-07-28T04:17:05;4.55;;;1.20;;
70433;SDS011;57876;47.792;12.960;2023-07-28T04:19:29;4.73;;;1.30;;
70433;SDS011;57876;47.792;12.960;2023-07-28T04:21:54;4.20;;;1.10;;
70433;SDS011;57876;47.792;12.960;2023-07-28T04:24:18;5.00;;;1.30;;
70433;SDS011;57876;47.792;12.960;2023-07-28T04:26:43;4.43;;;1.17;;
70433;SDS011;57876;47.792;12.960;2023-07-28T04:29:07;4.40;;;1.13;;
70433;SDS011;57876;47.792;12.960;2023-07-28T04:31:31;4.57;;;1.37;;
70433;SDS011;57876;47.792;12.960;2023-07-28T04:33:56;4.80;;;1.20;;
70433;SDS011;57876;47.792;12.960;2023-07-28T04:36:20;4.60;;;1.30;;
70433;SDS011;57876;47.792;12.960;2023-07-28T04:38:45;4.53;;;1.20;;
70433;SDS011;57876;47.792;12.960;2023-07-28T04:41:09;4.50;;;1.20;;
70433;SDS011;57876;47.792;12.960;2023-07-28T04:43:33;4.30;;;1.20;;
70433;SDS011;57876;47.792;12.960;2023-07-28T04:45:58;4.53;;;1.37;;
70433;SDS011;57876;47.792;12.960;2023-07-28T04:48:22;4.43;;;1.23;;
70433;SDS011;57876;47.792;12.960;2023-07-28T04:50:46;4.47;;;1.30;;
70433;SDS011;57876;47.792;12.960;2023-07-28T04:53:11;4.30;;;1.20;;
70433;SDS011;57876;47.792;12.960;2023-07-28T04:55:35;4.30;;;1.10;;
70433;SDS011;57876;47.792;12.960;2023-07-28T04:58:00;4.25;;;1.10;;
70433;SDS011;57876;47.792;12.960;2023-07-28T05:00:24;4.70;;;1.20;;
70433;SDS011;57876;47.792;12.960;2023-07-28T05:02:49;4.40;;;1.20;;
70433;SDS011;57876;47.792;12.960;2023-07-28T05:05:13;4.47;;;1.20;;
70433;SDS011;57876;47.792;12.960;2023-07-28T05:07:38;4.90;;;1.40;;
70433;SDS011;57876;47.792;12.960;2023-07-28T05:10:02;4.27;;;1.03;;
70433;SDS011;57876;47.792;12.960;2023-07-28T05:12:26;4.70;;;1.23;;
70433;SDS011;57876;47.792;12.960;2023-07-28T05:14:51;4.60;;;1.35;;
70433;SDS011;57876;47.792;12.960;2023-07-28T05:17:15;4.73;;;1.30;;
70433;SDS011;57876;47.792;12.960;2023-07-28T05:19:40;4.67;;;1.10;;
70433;SDS011;57876;47.792;12.960;2023-07-28T05:22:05;4.28;;;1.27;;
70433;SDS011;57876;47.792;12.960;2023-07-28T05:24:30;4.20;;;1.20;;
70433;SDS011;57876;47.792;12.960;2023-07-28T05:26:55;4.20;;;1.10;;
70433;SDS011;57876;47.792;12.960;2023-07-28T05:29:19;4.53;;;1.23;;
70433;SDS011;57876;47.792;12.960;2023-07-28T05:31:44;4.50;;;1.20;;
70433;SDS011;57876;47.792;12.960;2023-07-28T05:34:09;4.10;;;1.00;;
70433;SDS011;57876;47.792;12.960;2023-07-28T05:36:36;4.30;;;1.30;;
70433;SDS011;57876;47.792;12.960;2023-07-28T05:39:00;4.57;;;1.20;;
70433;SDS011;57876;47.792;12.960;2023-07-28T05:41:26;5.10;;;1.40;;
70433;SDS011;57876;47.792;12.960;2023-07-28T05:43:52;4.57;;;1.30;;
70433;SDS011;57876;47.792;12.960;2023-07-28T05:46:16;4.50;;;1.27;;
70433;SDS011;57876;47.792;12.960;2023-07-28T05:48:41;4.00;;;1.07;;
70433;SDS011;57876;47.792;12.960;2023-07-28T05:51:05;4.30;;;1.10;;
70433;SDS011;57876;47.792;12.960;2023-07-28T05:53:29;4.70;;;1.33;;
70433;SDS011;57876;47.792;12.960;2023-07-28T05:55:54;4.90;;;1.20;;
70433;SDS011;57876;47.792;12.960;2023-07-28T05:58:18;5.00;;;1.17;;
70433;SDS011;57876;47.792;12.960;2023-07-28T06:00:43;4.20;;;1.20;;
70433;SDS011;57876;47.792;12.960;2023-07-28T06:03:09;4.63;;;1.13;;
70433;SDS011;57876;47.792;12.960;2023-07-28T06:05:34;4.60;;;1.20;;
70433;SDS011;57876;47.792;12.960;2023-07-28T06:07:58;4.83;;;1.30;;
70433;SDS011;57876;47.792;12.960;2023-07-28T06:10:23;5.57;;;1.60;;
70433;SDS011;57876;47.792;12.960;2023-07-28T06:12:47;5.78;;;1.30;;
70433;SDS011;57876;47.792;12.960;2023-07-28T06:15:11;4.57;;;1.23;;
70433;SDS011;57876;47.792;12.960;2023-07-28T06:17:36;4.50;;;1.30;;
70433;SDS011;57876;47.792;12.960;2023-07-28T06:20:00;4.73;;;1.20;;
70433;SDS011;57876;47.792;12.960;2023-07-28T06:22:25;4.47;;;1.27;;
70433;SDS011;57876;47.792;12.960;2023-07-28T06:24:49;4.53;;;1.10;;
70433;SDS011;57876;47.792;12.960;2023-07-28T06:27:23;4.47;;;1.20;;
70433;SDS011;57876;47.792;12.960;2023-07-28T06:29:48;4.45;;;1.25;;
70433;SDS011;57876;47.792;12.960;2023-07-28T06:32:12;4.90;;;1.40;;
70433;SDS011;57876;47.792;12.960;2023-07-28T06:34:43;4.43;;;1.23;;
70433;SDS011;57876;47.792;12.960;2023-07-28T06:37:51;4.43;;;1.33;;
70433;SDS011;57876;47.792;12.960;2023-07-28T06:40:16;4.80;;;1.30;;
70433;SDS011;57876;47.792;12.960;2023-07-28T06:42:44;4.43;;;1.17;;
70433;SDS011;57876;47.792;12.960;2023-07-28T06:45:08;4.65;;;1.20;;
70433;SDS011;57876;47.792;12.960;2023-07-28T06:47:33;4.67;;;1.30;;
70433;SDS011;57876;47.792;12.960;2023-07-28T06:49:58;4.55;;;1.08;;
70433;SDS011;57876;47.792;12.960;2023-07-28T06:52:23;6.17;;;1.20;;
70433;SDS011;57876;47.792;12.960;2023-07-28T06:54:47;4.77;;;1.20;;
70433;SDS011;57876;47.792;12.960;2023-07-28T06:57:13;4.55;;;1.20;;
70433;SDS011;57876;47.792;12.960;2023-07-28T06:59:37;4.37;;;1.30;;
70433;SDS011;57876;47.792;12.960;2023-07-28T07:02:04;4.53;;;1.10;;
70433;SDS011;57876;47.792;12.960;2023-07-28T07:04:29;4.57;;;1.10;;
70433;SDS011;57876;47.792;12.960;2023-07-28T07:06:54;5.17;;;1.00;;
70433;SDS011;57876;47.792;12.960;2023-07-28T07:09:18;4.70;;;1.27;;
70433;SDS011;57876;47.792;12.960;2023-07-28T07:11:44;4.80;;;1.40;;
70433;SDS011;57876;47.792;12.960;2023-07-28T07:14:10;4.60;;;1.30;;
70433;SDS011;57876;47.792;12.960;2023-07-28T07:16:35;5.40;;;1.43;;
70433;SDS011;57876;47.792;12.960;2023-07-28T07:18:59;4.30;;;1.20;;
70433;SDS011;57876;47.792;12.960;2023-07-28T07:21:24;4.13;;;1.00;;
70433;SDS011;57876;47.792;12.960;2023-07-28T07:23:48;3.90;;;1.00;;
70433;SDS011;57876;47.792;12.960;2023-07-28T07:26:15;4.63;;;1.20;;
70433;SDS011;57876;47.792;12.960;2023-07-28T07:28:47;4.43;;;1.10;;
70433;SDS011;57876;47.792;12.960;2023-07-28T07:31:17;4.57;;;1.20;;
70433;SDS011;57876;47.792;12.960;2023-07-28T07:33:45;4.72;;;1.40;;
70433;SDS011;57876;47.792;12.960;2023-07-28T07:36:13;4.25;;;1.15;;
70433;SDS011;57876;47.792;12.960;2023-07-28T07:38:40;5.47;;;1.30;;
70433;SDS011;57876;47.792;12.960;2023-07-28T07:41:05;4.53;;;1.20;;
70433;SDS011;57876;47.792;12.960;2023-07-28T07:43:29;4.10;;;1.00;;
70433;SDS011;57876;47.792;12.960;2023-07-28T07:45:54;4.40;;;1.20;;
70433;SDS011;57876;47.792;12.960;2023-07-28T07:48:30;4.43;;;1.10;;
70433;SDS011;57876;47.792;12.960;2023-07-28T07:51:01;4.53;;;1.00;;
70433;SDS011;57876;47.792;12.960;2023-07-28T07:53:26;4.63;;;1.20;;
70433;SDS011;57876;47.792;12.960;2023-07-28T07:55:50;4.87;;;1.20;;
70433;SDS011;57876;47.792;12.960;2023-07-28T07:58:15;4.80;;;1.25;;
70433;SDS011;57876;47.792;12.960;2023-07-28T08:00:39;4.33;;;1.20;;
70433;SDS011;57876;47.792;12.960;2023-07-28T08:03:13;4.43;;;1.23;;
70433;SDS011;57876;47.792;12.960;2023-07-28T08:05:41;4.90;;;1.13;;
70433;SDS011;57876;47.792;12.960;2023-07-28T08:08:11;4.82;;;1.10;;
70433;SDS011;57876;47.792;12.960;2023-07-28T08:10:43;4.38;;;1.10;;
70433;SDS011;57876;47.792;12.960;2023-07-28T08:13:11;4.20;;;1.10;;
70433;SDS011;57876;47.792;12.960;2023-07-28T08:15:46;5.40;;;1.30;;
70433;SDS011;57876;47.792;12.960;2023-07-28T08:18:11;5.93;;;1.10;;
70433;SDS011;57876;47.792;12.960;2023-07-28T08:20:36;4.90;;;1.17;;
70433;SDS011;57876;47.792;12.960;2023-07-28T08:23:01;4.53;;;1.30;;
70433;SDS011;57876;47.792;12.960;2023-07-28T08:25:31;5.70;;;1.20;;
70433;SDS011;57876;47.792;12.960;2023-07-28T08:28:04;4.80;;;1.20;;
70433;SDS011;57876;47.792;12.960;2023-07-28T08:30:29;4.87;;;1.10;;
70433;SDS011;57876;47.792;12.960;2023-07-28T08:32:56;4.45;;;1.00;;
70433;SDS011;57876;47.792;12.960;2023-07-28T08:35:21;4.45;;;1.20;;
70433;SDS011;57876;47.792;12.960;2023-07-28T08:37:45;10.30;;;1.40;;
70433;SDS011;57876;47.792;12.960;2023-07-28T08:40:10;5.73;;;1.50;;
70433;SDS011;57876;47.792;12.960;2023-07-28T08:42:39;6.33;;;1.50;;
70433;SDS011;57876;47.792;12.960;2023-07-28T08:45:04;8.93;;;1.63;;
70433;SDS011;57876;47.792;12.960;2023-07-28T08:47:33;6.22;;;1.23;;
70433;SDS011;57876;47.792;12.960;2023-07-28T08:50:00;7.70;;;1.50;;
70433;SDS011;57876;47.792;12.960;2023-07-28T08:52:25;7.45;;;1.42;;
70433;SDS011;57876;47.792;12.960;2023-07-28T08:54:50;7.13;;;1.37;;
70433;SDS011;57876;47.792;12.960;2023-07-28T08:57:15;6.80;;;1.40;;
70433;SDS011;57876;47.792;12.960;2023-07-28T08:59:42;7.32;;;1.85;;
70433;SDS011;57876;47.792;12.960;2023-07-28T09:02:11;6.68;;;1.48;;
70433;SDS011;57876;47.792;12.960;2023-07-28T09:04:35;7.83;;;1.30;;
70433;SDS011;57876;47.792;12.960;2023-07-28T09:07:00;7.83;;;1.40;;
70433;SDS011;57876;47.792;12.960;2023-07-28T09:09:34;5.97;;;1.30;;
70433;SDS011;57876;47.792;12.960;2023-07-28T09:12:01;4.85;;;1.02;;
70433;SDS011;57876;47.792;12.960;2023-07-28T09:14:27;6.30;;;1.37;;
70433;SDS011;57876;47.792;12.960;2023-07-28T09:16:52;7.22;;;1.50;;
70433;SDS011;57876;47.792;12.960;2023-07-28T09:19:17;5.13;;;1.23;;
70433;SDS011;57876;47.792;12.960;2023-07-28T09:21:56;7.93;;;1.50;;
70433;SDS011;57876;47.792;12.960;2023-07-28T09:24:29;9.93;;;1.37;;
70433;SDS011;57876;47.792;12.960;2023-07-28T09:26:58;9.68;;;1.65;;
70433;SDS011;57876;47.792;12.960;2023-07-28T09:29:26;6.35;;;1.30;;
70433;SDS011;57876;47.792;12.960;2023-07-28T09:32:02;6.25;;;1.38;;
70433;SDS011;57876;47.792;12.960;2023-07-28T09:34:28;7.88;;;1.20;;
70433;SDS011;57876;47.792;12.960;2023-07-28T09:36:57;7.63;;;1.10;;
70433;SDS011;57876;47.792;12.960;2023-07-28T09:39:32;6.65;;;1.40;;
70433;SDS011;57876;47.792;12.960;2023-07-28T09:42:28;7.70;;;1.65;;
70433;SDS011;57876;47.792;12.960;2023-07-28T09:44:53;8.30;;;1.30;;
70433;SDS011;57876;47.792;12.960;2023-07-28T09:47:21;8.73;;;1.40;;
70433;SDS011;57876;47.792;12.960;2023-07-28T09:49:46;9.10;;;1.58;;
70433;SDS011;57876;47.792;12.960;2023-07-28T09:52:14;8.10;;;1.40;;
70433;SDS011;57876;47.792;12.960;2023-07-28T09:55:05;6.20;;;1.23;;
70433;SDS011;57876;47.792;12.960;2023-07-28T09:58:19;6.70;;;1.10;;
70433;SDS011;57876;47.792;12.960;2023-07-28T10:00:46;7.18;;;1.45;;
70433;SDS011;57876;47.792;12.960;2023-07-28T10:03:11;7.05;;;1.30;;
70433;SDS011;57876;47.792;12.960;2023-07-28T10:05:42;6.50;;;1.27;;
70433;SDS011;57876;47.792;12.960;2023-07-28T10:08:14;8.53;;;1.50;;
70433;SDS011;57876;47.792;12.960;2023-07-28T10:10:48;8.30;;;1.33;;
70433;SDS011;57876;47.792;12.960;2023-07-28T10:13:22;6.07;;;1.15;;
70433;SDS011;57876;47.792;12.960;2023-07-28T10:15:50;6.80;;;1.10;;
70433;SDS011;57876;47.792;12.960;2023-07-28T10:18:15;6.82;;;1.20;;
70433;SDS011;57876;47.792;12.960;2023-07-28T10:20:40;7.73;;;1.27;;
70433;SDS011;57876;47.792;12.960;2023-07-28T10:23:14;5.75;;;1.33;;
70433;SDS011;57876;47.792;12.960;2023-07-28T10:25:41;7.20;;;1.30;;
70433;SDS011;57876;47.792;12.960;2023-07-28T10:31:15;6.20;;;1.60;;
70433;SDS011;57876;47.792;12.960;2023-07-28T10:34:00;7.80;;;1.20;;
70433;SDS011;57876;47.792;12.960;2023-07-28T10:39:02;7.47;;;1.57;;
70433;SDS011;57876;47.792;12.960;2023-07-28T10:41:37;5.70;;;1.10;;
70433;SDS011;57876;47.792;12.960;2023-07-28T10:44:01;5.23;;;1.30;;
70433;SDS011;57876;47.792;12.960;2023-07-28T10:46:26;6.87;;;1.23;;
70433;SDS011;57876;47.792;12.960;2023-07-28T10:49:06;5.90;;;1.30;;
70433;SDS011;57876;47.792;12.960;2023-07-28T10:51:56;6.30;;;1.20;;
70433;SDS011;57876;47.792;12.960;2023-07-28T10:54:21;6.10;;;1.10;;
70433;SDS011;57876;47.792;12.960;2023-07-28T10:56:46;5.90;;;1.30;;
70433;SDS011;57876;47.792;12.960;2023-07-28T10:59:11;9.43;;;1.90;;
70433;SDS011;57876;47.792;12.960;2023-07-28T11:01:36;5.00;;;1.20;;
70433;SDS011;57876;47.792;12.960;2023-07-28T11:04:18;5.47;;;1.35;;
70433;SDS011;57876;47.792;12.960;2023-07-28T11:06:45;6.93;;;1.30;;
70433;SDS011;57876;47.792;12.960;2023-07-28T11:09:35;5.50;;;1.10;;
70433;SDS011;57876;47.792;12.960;2023-07-28T11:12:01;5.72;;;1.05;;
70433;SDS011;57876;47.792;12.960;2023-07-28T11:14:25;5.40;;;1.20;;
70433;SDS011;57876;47.792;12.960;2023-07-28T11:16:49;5.63;;;1.40;;
70433;SDS011;57876;47.792;12.960;2023-07-28T11:19:14;6.35;;;1.15;;
70433;SDS011;57876;47.792;12.960;2023-07-28T11:21:41;7.07;;;1.25;;
70433;SDS011;57876;47.792;12.960;2023-07-28T11:24:06;6.07;;;1.53;;
70433;SDS011;57876;47.792;12.960;2023-07-28T11:26:32;5.53;;;1.27;;
70433;SDS011;57876;47.792;12.960;2023-07-28T11:28:59;6.97;;;1.42;;
70433;SDS011;57876;47.792;12.960;2023-07-28T11:31:23;4.87;;;1.30;;
70433;SDS011;57876;47.792;12.960;2023-07-28T11:33:49;6.32;;;1.10;;
70433;SDS011;57876;47.792;12.960;2023-07-28T11:36:21;5.53;;;1.10;;
70433;SDS011;57876;47.792;12.960;2023-07-28T11:38:46;5.15;;;1.10;;
70433;SDS011;57876;47.792;12.960;2023-07-28T11:41:11;4.60;;;1.10;;
70433;SDS011;57876;47.792;12.960;2023-07-28T11:43:41;5.57;;;1.40;;
70433;SDS011;57876;47.792;12.960;2023-07-28T11:49:08;4.97;;;1.13;;
70433;SDS011;57876;47.792;12.960;2023-07-28T11:51:40;5.85;;;1.35;;
70433;SDS011;57876;47.792;12.960;2023-07-28T11:54:07;5.65;;;1.20;;
70433;SDS011;57876;47.792;12.960;2023-07-28T11:56:34;6.20;;;1.30;;
70433;SDS011;57876;47.792;12.960;2023-07-28T11:58:59;5.13;;;1.00;;
70433;SDS011;57876;47.792;12.960;2023-07-28T12:01:23;5.50;;;1.30;;
70433;SDS011;57876;47.792;12.960;2023-07-28T12:03:48;5.40;;;1.20;;
70433;SDS011;57876;47.792;12.960;2023-07-28T12:06:12;4.57;;;1.10;;
70433;SDS011;57876;47.792;12.960;2023-07-28T12:08:37;5.00;;;1.13;;
70433;SDS011;57876;47.792;12.960;2023-07-28T12:11:01;5.60;;;1.20;;
70433;SDS011;57876;47.792;12.960;2023-07-28T12:13:26;5.37;;;1.40;;
70433;SDS011;57876;47.792;12.960;2023-07-28T12:15:51;6.82;;;1.55;;
70433;SDS011;57876;47.792;12.960;2023-07-28T12:18:16;5.53;;;1.30;;
70433;SDS011;57876;47.792;12.960;2023-07-28T12:20:49;6.28;;;1.30;;
70433;SDS011;57876;47.792;12.960;2023-07-28T12:23:26;5.30;;;1.20;;
70433;SDS011;57876;47.792;12.960;2023-07-28T12:25:51;6.82;;;1.40;;
70433;SDS011;57876;47.792;12.960;2023-07-28T12:28:17;8.00;;;1.20;;
70433;SDS011;57876;47.792;12.960;2023-07-28T12:30:45;5.50;;;1.10;;
70433;SDS011;57876;47.792;12.960;2023-07-28T12:33:09;5.97;;;1.30;;
70433;SDS011;57876;47.792;12.960;2023-07-28T12:35:34;5.38;;;1.30;;
70433;SDS011;57876;47.792;12.960;2023-07-28T12:37:58;6.70;;;1.20;;
70433;SDS011;57876;47.792;12.960;2023-07-28T12:40:24;7.07;;;1.60;;
70433;SDS011;57876;47.792;12.960;2023-07-28T12:42:48;7.27;;;1.47;;
70433;SDS011;57876;47.792;12.960;2023-07-28T12:45:12;6.82;;;1.60;;
70433;SDS011;57876;47.792;12.960;2023-07-28T12:47:38;8.13;;;1.40;;
70433;SDS011;57876;47.792;12.960;2023-07-28T12:50:02;7.95;;;1.38;;
70433;SDS011;57876;47.792;12.960;2023-07-28T12:52:29;7.75;;;1.30;;
70433;SDS011;57876;47.792;12.960;2023-07-28T12:54:53;8.13;;;1.53;;
70433;SDS011;57876;47.792;12.960;2023-07-28T12:57:18;7.13;;;1.58;;
70433;SDS011;57876;47.792;12.960;2023-07-28T12:59:42;9.07;;;1.67;;
70433;SDS011;57876;47.792;12.960;2023-07-28T13:02:07;13.10;;;1.60;;
70433;SDS011;57876;47.792;12.960;2023-07-28T13:04:31;11.23;;;1.80;;
70433;SDS011;57876;47.792;12.960;2023-07-28T13:06:56;9.10;;;1.52;;
70433;SDS011;57876;47.792;12.960;2023-07-28T13:09:20;10.80;;;1.57;;
70433;SDS011;57876;47.792;12.960;2023-07-28T13:11:44;11.30;;;1.63;;
70433;SDS011;57876;47.792;12.960;2023-07-28T13:14:09;10.70;;;1.90;;
70433;SDS011;57876;47.792;12.960;2023-07-28T13:16:36;11.13;;;1.80;;
70433;SDS011;57876;47.792;12.960;2023-07-28T13:19:02;9.23;;;1.80;;
70433;SDS011;57876;47.792;12.960;2023-07-28T13:21:27;10.23;;;2.10;;
70433;SDS011;57876;47.792;12.960;2023-07-28T13:23:52;12.27;;;2.00;;
70433;SDS011;57876;47.792;12.960;2023-07-28T13:26:16;12.27;;;1.87;;
70433;SDS011;57876;47.792;12.960;2023-07-28T13:28:44;11.97;;;2.33;;
70433;SDS011;57876;47.792;12.960;2023-07-28T13:45:50;18.75;;;3.20;;
70433;SDS011;57876;47.792;12.960;2023-07-28T13:48:14;15.85;;;3.50;;
70433;SDS011;57876;47.792;12.960;2023-07-28T13:50:42;18.13;;;3.37;;
70433;SDS011;57876;47.792;12.960;2023-07-28T13:53:09;15.75;;;3.40;;
70433;SDS011;57876;47.792;12.960;2023-07-28T13:55:34;18.37;;;3.43;;
70433;SDS011;57876;47.792;12.960;2023-07-28T13:58:00;12.43;;;3.47;;
70433;SDS011;57876;47.792;12.960;2023-07-28T14:00:25;16.90;;;3.73;;
70433;SDS011;57876;47.792;12.960;2023-07-28T14:16:15;11.57;;;2.85;;
70433;SDS011;57876;47.792;12.960;2023-07-28T14:18:40;14.97;;;4.23;;
70433;SDS011;57876;47.792;12.960;2023-07-28T14:21:08;12.80;;;3.13;;
70433;SDS011;57876;47.792;12.960;2023-07-28T14:23:35;12.18;;;3.40;;
70433;SDS011;57876;47.792;12.960;2023-07-28T14:26:03;14.52;;;2.92;;
70433;SDS011;57876;47.792;12.960;2023-07-28T14:28:27;15.18;;;3.25;;
70433;SDS011;57876;47.792;12.960;2023-07-28T14:30:52;20.03;;;3.57;;
70433;SDS011;57876;47.792;12.960;2023-07-28T14:33:19;12.13;;;2.80;;
70433;SDS011;57876;47.792;12.960;2023-07-28T14:35:44;13.00;;;3.20;;
70433;SDS011;57876;47.792;12.960;2023-07-28T14:38:12;13.20;;;3.13;;
70433;SDS011;57876;47.792;12.960;2023-07-28T14:40:37;14.10;;;3.13;;
70433;SDS011;57876;47.792;12.960;2023-07-28T14:43:01;11.90;;;2.90;;
70433;SDS011;57876;47.792;12.960;2023-07-28T14:45:26;14.63;;;3.67;;
70433;SDS011;57876;47.792;12.960;2023-07-28T14:47:53;14.27;;;3.03;;
70433;SDS011;57876;47.792;12.960;2023-07-28T14:50:17;13.83;;;3.23;;
70433;SDS011;57876;47.792;12.960;2023-07-28T14:52:48;13.63;;;3.28;;
70433;SDS011;57876;47.792;12.960;2023-07-28T14:55:19;15.85;;;2.78;;
70433;SDS011;57876;47.792;12.960;2023-07-28T14:57:43;11.73;;;2.93;;
70433;SDS011;57876;47.792;12.960;2023-07-28T15:00:08;15.57;;;3.53;;
70433;SDS011;57876;47.792;12.960;2023-07-28T15:02:33;12.43;;;2.92;;
70433;SDS011;57876;47.792;12.960;2023-07-28T15:05:00;16.05;;;3.53;;
70433;SDS011;57876;47.792;12.960;2023-07-28T15:07:25;9.37;;;2.53;;
70433;SDS011;57876;47.792;12.960;2023-07-28T15:09:51;13.98;;;2.70;;